Time;durP1;ratioP1;P1;durP2;ratioP2;P2;SDS_P1;SDS_P2;PMS_P1;PMS_P2;Temp;Humidity;BMP_temperature;BMP_pressure;BME280_temperature;BME280_humidity;BME280_pressure;Samples;Min_cycle;Max_cycle;Signal;HPM_P1;HPM_P2
2022/08/13 00:00:59;;;;;;;785.88;721.72;;;;;;;19.45;46.88;96700.38;5034933;28;20593;-64
2022/08/13 00:03:26;;;;;;;773.13;708.33;;;;;;;19.53;46.85;96693.63;5034972;28;20171;-65
2022/08/13 00:05:52;;;;;;;750.75;687.70;;;;;;;19.34;47.24;96688.25;5033179;28;20183;-64
2022/08/13 00:08:22;;;;;;;731.55;670.35;;;;;;;19.46;46.91;96695.84;5034162;28;20183;-64
2022/08/13 00:10:48;;;;;;;725.65;664.70;;;;;;;19.41;47.05;96687.91;5034320;28;20254;-66
2022/08/13 00:13:16;;;;;;;704.47;645.80;;;;;;;19.33;47.50;96686.69;5033404;28;20267;-64
2022/08/13 00:15:43;;;;;;;695.25;637.92;;;;;;;19.32;47.65;96684.31;5033304;28;20248;-64
2022/08/13 00:18:16;;;;;;;688.30;631.47;;;;;;;19.37;47.28;96689.56;5033000;28;20182;-64
2022/08/13 00:20:53;;;;;;;671.30;617.78;;;;;;;19.14;48.23;96695.66;5034594;28;20186;-64
2022/08/13 00:23:20;;;;;;;633.67;584.25;;;;;;;19.16;48.24;96696.19;5034683;28;20227;-64
2022/08/13 00:25:54;;;;;;;636.38;586.85;;;;;;;19.01;48.51;96687.31;5034077;28;20187;-64
2022/08/13 00:28:22;;;;;;;582.17;537.25;;;;;;;19.02;48.48;96693.41;5033632;28;20186;-64
2022/08/13 00:30:48;;;;;;;592.83;546.97;;;;;;;19.06;48.54;96691.75;5034478;28;20197;-64
2022/08/13 00:33:19;;;;;;;570.72;527.83;;;;;;;18.96;49.10;96690.00;5033728;28;20190;-64
2022/08/13 00:35:47;;;;;;;584.67;541.60;;;;;;;18.99;48.85;96692.13;5034042;28;20187;-64
2022/08/13 00:38:33;;;;;;;583.65;542.80;;;;;;;18.80;49.33;96687.78;5033742;28;20198;-64
2022/08/13 00:41:00;;;;;;;556.85;517.13;;;;;;;18.79;49.57;96683.56;5033139;28;20201;-64
2022/08/13 00:43:27;;;;;;;541.13;502.20;;;;;;;18.79;49.56;96678.25;5034195;28;20273;-64
2022/08/13 00:45:54;;;;;;;560.80;520.72;;;;;;;18.79;50.04;96670.28;5034522;28;20193;-64
2022/08/13 00:51:06;;;;;;;578.92;535.03;;;;;;;18.63;50.09;96665.13;5033792;28;20217;-64
2022/08/13 00:53:34;;;;;;;611.35;565.85;;;;;;;18.73;50.11;96660.78;5033882;28;20295;-64
2022/08/13 00:55:59;;;;;;;661.88;612.65;;;;;;;18.58;50.57;96659.88;5033497;28;20190;-64
2022/08/13 00:58:27;;;;;;;665.72;616.80;;;;;;;18.59;50.54;96655.34;5047672;28;20305;-64
2022/08/13 01:00:58;;;;;;;654.72;606.20;;;;;;;18.38;51.04;96652.06;5033747;28;20593;-63
2022/08/13 01:03:28;;;;;;;724.10;663.88;;;;;;;18.42;51.15;96642.47;5033578;28;20217;-63
2022/08/13 01:05:56;;;;;;;765.80;697.35;;;;;;;18.35;51.48;96639.34;5033229;28;20175;-64
2022/08/13 01:08:22;;;;;;;820.72;742.85;;;;;;;18.31;51.96;96642.84;5033423;28;20194;-63
2022/08/13 01:10:49;;;;;;;886.38;799.10;;;;;;;18.28;51.95;96657.44;5033661;28;20181;-63
2022/08/13 01:13:18;;;;;;;969.95;859.05;;;;;;;18.24;52.23;96651.13;5033566;28;20179;-64
2022/08/13 01:15:44;;;;;;;915.58;826.38;;;;;;;18.38;52.07;96654.72;5032765;28;20190;-64
2022/08/13 01:18:13;;;;;;;948.90;852.45;;;;;;;18.38;51.86;96661.88;5033018;28;20183;-64
2022/08/13 01:20:44;;;;;;;946.10;848.97;;;;;;;18.28;52.48;96658.22;5033283;28;20203;-63
2022/08/13 01:23:10;;;;;;;914.53;819.63;;;;;;;18.28;52.35;96657.44;5033276;28;20167;-65
2022/08/13 01:25:37;;;;;;;935.80;839.07;;;;;;;18.28;52.65;96658.22;5032746;28;20190;-64
2022/08/13 01:28:03;;;;;;;910.22;816.60;;;;;;;18.15;52.94;96655.44;5025306;28;20676;-64
2022/08/13 01:30:29;;;;;;;918.80;826.28;;;;;;;18.19;52.93;96646.66;5033112;28;20321;-64
2022/08/13 01:32:55;;;;;;;914.27;828.70;;;;;;;18.03;53.34;96652.34;5032498;28;20302;-64
2022/08/13 01:35:21;;;;;;;864.93;787.63;;;;;;;18.20;53.09;96650.88;5033084;28;20195;-64
2022/08/13 01:37:53;;;;;;;815.63;745.70;;;;;;;18.22;53.00;96645.31;5031737;28;20178;-64
2022/08/13 01:40:18;;;;;;;752.47;691.03;;;;;;;18.18;53.38;96646.91;5029651;28;20182;-64
2022/08/13 01:42:45;;;;;;;727.93;669.23;;;;;;;18.15;53.59;96644.84;5033043;28;20187;-64
2022/08/13 01:45:13;;;;;;;713.23;656.80;;;;;;;18.06;53.71;96644.63;5032430;28;20174;-64
2022/08/13 01:50:29;;;;;;;765.80;701.17;;;;;;;18.02;54.07;96633.00;5032152;28;20193;-64
2022/08/13 01:53:01;;;;;;;801.33;726.50;;;;;;;17.90;54.79;96635.19;5032145;28;20240;-64
2022/08/13 01:55:38;;;;;;;752.70;687.63;;;;;;;18.00;54.41;96635.13;5031267;28;20609;-64
2022/08/13 01:58:25;;;;;;;780.13;711.57;;;;;;;17.91;54.75;96638.66;5032571;28;20258;-64
2022/08/13 02:00:54;;;;;;;766.23;700.00;;;;;;;17.94;54.66;96638.91;5032063;28;20265;-64
2022/08/13 02:03:20;;;;;;;760.47;695.07;;;;;;;17.97;54.49;96643.63;5032668;28;20190;-64
2022/08/13 02:05:48;;;;;;;787.77;718.87;;;;;;;17.81;55.04;96636.88;5032412;28;20182;-64
2022/08/13 02:08:19;;;;;;;802.40;731.23;;;;;;;17.97;54.70;96646.28;5032211;28;20189;-65
2022/08/13 02:10:46;;;;;;;824.47;752.93;;;;;;;17.83;55.34;96640.03;5030961;28;20269;-65
2022/08/13 02:13:17;;;;;;;820.67;748.33;;;;;;;17.93;54.92;96639.97;5031851;28;20182;-63
2022/08/13 02:15:48;;;;;;;790.83;722.10;;;;;;;18.07;54.52;96638.25;5031455;28;20547;-64
2022/08/13 02:18:17;;;;;;;779.57;712.50;;;;;;;17.95;54.91;96639.66;5032591;28;20177;-64
2022/08/13 02:20:44;;;;;;;818.07;747.97;;;;;;;17.87;55.45;96638.41;5032245;28;20266;-64
2022/08/13 02:23:15;;;;;;;789.10;722.47;;;;;;;17.84;55.38;96636.28;5032593;28;20182;-64
2022/08/13 02:25:41;;;;;;;800.70;733.87;;;;;;;17.82;55.38;96635.81;5032370;28;20228;-64
2022/08/13 02:28:10;;;;;;;800.60;732.33;;;;;;;17.80;55.51;96644.03;5030967;28;20194;-64
2022/08/13 02:30:35;;;;;;;775.83;709.30;;;;;;;17.80;55.69;96648.53;5032571;28;20256;-64
2022/08/13 02:33:03;;;;;;;797.63;729.43;;;;;;;17.83;55.43;96642.69;5032142;28;20660;-64
2022/08/13 02:35:29;;;;;;;790.00;721.83;;;;;;;17.79;55.68;96646.94;5032369;28;20183;-64
2022/08/13 02:37:54;;;;;;;754.60;689.37;;;;;;;17.68;55.92;96651.53;5032334;28;20248;-64
2022/08/13 02:43:05;;;;;;;741.60;678.60;;;;;;;17.65;56.28;96653.94;5032623;28;20233;-63
2022/08/13 02:45:31;;;;;;;728.00;666.55;;;;;;;17.71;56.13;96651.00;5032055;28;20183;-64
2022/08/13 02:47:57;;;;;;;733.05;670.92;;;;;;;17.78;55.93;96650.66;5032729;28;20226;-64
2022/08/13 02:50:24;;;;;;;740.67;678.77;;;;;;;17.77;55.80;96651.75;5031974;28;20183;-64
2022/08/13 02:52:51;;;;;;;771.80;706.37;;;;;;;17.73;55.79;96642.72;5032377;28;20646;-64
2022/08/13 02:55:22;;;;;;;781.33;715.47;;;;;;;17.70;55.87;96638.78;5032411;28;20262;-64
2022/08/13 02:57:49;;;;;;;774.03;710.07;;;;;;;17.73;56.03;96643.53;5032160;28;20635;-64
2022/08/13 03:00:16;;;;;;;790.63;725.30;;;;;;;17.65;56.35;96649.44;5031634;28;20187;-64
2022/08/13 03:02:45;;;;;;;780.58;717.17;;;;;;;17.66;56.41;96643.06;5033393;28;20182;-64
2022/08/13 03:05:16;;;;;;;755.20;694.23;;;;;;;17.72;56.18;96636.63;5036173;28;20189;-63
2022/08/13 03:07:43;;;;;;;710.13;654.33;;;;;;;17.37;57.17;96650.88;5036481;28;20175;-63
2022/08/13 03:10:11;;;;;;;766.97;705.13;;;;;;;17.45;56.97;96646.84;5035440;28;20194;-64
2022/08/13 03:12:42;;;;;;;764.73;703.17;;;;;;;17.55;56.57;96643.38;5035725;28;20198;-64
2022/08/13 03:15:13;;;;;;;752.87;692.13;;;;;;;17.48;56.94;96650.81;5034901;28;20641;-64
2022/08/13 03:17:40;;;;;;;755.20;696.03;;;;;;;17.47;56.79;96650.03;5035885;28;20662;-64
2022/08/13 03:20:08;;;;;;;770.57;708.70;;;;;;;17.44;57.16;96645.28;5035479;28;20265;-64
2022/08/13 03:22:52;;;;;;;745.80;687.33;;;;;;;17.54;56.66;96641.78;5035033;28;20190;-64
2022/08/13 03:25:19;;;;;;;713.77;658.23;;;;;;;17.42;57.01;96647.41;5035412;28;20178;-65
2022/08/13 03:27:45;;;;;;;719.47;664.17;;;;;;;17.62;56.35;96646.50;5034846;28;20326;-64
2022/08/13 03:30:12;;;;;;;738.53;682.03;;;;;;;17.57;56.42;96642.00;5035454;28;20214;-64
2022/08/13 03:32:40;;;;;;;708.67;654.20;;;;;;;17.48;56.74;96640.22;5034497;28;20570;-64
2022/08/13 03:35:10;;;;;;;717.53;663.05;;;;;;;17.59;56.42;96647.06;5035180;28;20178;-64
2022/08/13 03:37:36;;;;;;;704.77;651.10;;;;;;;17.45;56.62;96646.84;5034084;28;20194;-64
2022/08/13 03:40:02;;;;;;;694.40;641.60;;;;;;;17.36;57.20;96638.69;5033601;28;20248;-64
2022/08/13 03:42:28;;;;;;;696.80;643.37;;;;;;;17.37;57.17;96644.78;5034519;28;20186;-64
2022/08/13 03:44:54;;;;;;;728.20;671.70;;;;;;;17.32;57.18;96644.81;5034685;28;20178;-64
2022/08/13 03:47:19;;;;;;;701.93;648.03;;;;;;;17.42;56.91;96642.91;5035191;28;20186;-64
2022/08/13 03:49:46;;;;;;;690.03;636.73;;;;;;;17.47;56.84;96647.38;5035037;28;20205;-64
2022/08/13 03:52:13;;;;;;;711.70;655.20;;;;;;;17.52;56.65;96641.25;5034163;28;20203;-64
2022/08/13 03:54:40;;;;;;;709.53;653.07;;;;;;;17.49;56.82;96636.50;5034295;28;20641;-64
2022/08/13 03:57:06;;;;;;;698.23;642.27;;;;;;;17.53;56.61;96634.88;5034421;28;20213;-64
2022/08/13 03:59:31;;;;;;;744.83;684.13;;;;;;;17.58;56.62;96642.81;5034714;28;20284;-64
2022/08/13 04:02:01;;;;;;;725.40;666.77;;;;;;;17.60;56.47;96635.41;5034711;28;20683;-64
2022/08/13 04:04:29;;;;;;;746.03;686.47;;;;;;;17.66;56.32;96635.13;5034379;28;20175;-64
2022/08/13 04:06:54;;;;;;;717.77;658.10;;;;;;;17.53;56.83;96632.25;5034556;28;20252;-65
2022/08/13 04:09:20;;;;;;;737.77;674.73;;;;;;;17.58;56.60;96627.69;5034189;28;20183;-64
2022/08/13 04:11:46;;;;;;;736.50;674.90;;;;;;;17.45;56.89;96629.09;5032991;28;20206;-64
2022/08/13 04:14:12;;;;;;;741.20;678.27;;;;;;;17.44;56.98;96634.69;5033340;28;20186;-63
2022/08/13 04:16:39;;;;;;;764.70;700.40;;;;;;;17.28;57.60;96631.31;5034119;28;20190;-64
2022/08/13 04:19:06;;;;;;;797.80;726.50;;;;;;;17.20;57.56;96629.25;5034619;28;20175;-64
2022/08/13 04:21:33;;;;;;;814.63;743.10;;;;;;;17.13;58.04;96638.53;5033684;28;20217;-64
2022/08/13 04:24:03;;;;;;;817.50;743.43;;;;;;;17.15;58.04;96633.75;5034133;28;20217;-65
2022/08/13 04:26:30;;;;;;;838.63;763.10;;;;;;;17.14;57.92;96638.25;5033056;28;20304;-64
2022/08/13 04:28:57;;;;;;;878.77;797.43;;;;;;;17.14;57.97;96637.47;5033857;28;20205;-64
2022/08/13 04:31:23;;;;;;;883.27;803.17;;;;;;;17.20;58.10;96628.44;5033898;28;20282;-64
2022/08/13 04:33:48;;;;;;;901.90;817.93;;;;;;;17.24;57.78;96626.81;5034097;28;20194;-64
2022/08/13 04:36:14;;;;;;;909.03;825.53;;;;;;;17.20;57.73;96623.16;5033920;28;20190;-64
2022/08/13 04:38:39;;;;;;;897.30;814.07;;;;;;;17.16;57.58;96636.16;5034193;28;20187;-65
2022/08/13 04:41:05;;;;;;;888.50;807.77;;;;;;;17.25;57.83;96628.41;5033339;28;20197;-64
2022/08/13 04:43:30;;;;;;;904.33;821.83;;;;;;;17.29;57.69;96634.75;5034239;28;20214;-64
2022/08/13 04:45:58;;;;;;;915.20;831.13;;;;;;;17.26;57.99;96635.31;5032659;28;20646;-65
2022/08/13 04:48:25;;;;;;;929.10;844.40;;;;;;;17.23;58.18;96638.47;5034015;28;20185;-64
2022/08/13 04:50:50;;;;;;;921.60;835.15;;;;;;;17.07;58.66;96648.34;5033747;28;20258;-65
2022/08/13 04:53:24;;;;;;;940.03;852.40;;;;;;;17.02;58.91;96648.38;5033106;28;20269;-64
2022/08/13 04:55:50;;;;;;;907.47;823.40;;;;;;;17.16;58.74;96646.75;5033975;28;20194;-64
2022/08/13 04:58:16;;;;;;;884.20;804.07;;;;;;;16.77;59.46;96651.13;5033492;28;20190;-64
2022/08/13 05:00:44;;;;;;;852.50;777.87;;;;;;;17.14;58.88;96662.09;5033731;28;20593;-64
2022/08/13 05:03:15;;;;;;;752.43;689.93;;;;;;;17.45;57.79;96654.78;5032959;28;20193;-65
2022/08/13 05:05:43;;;;;;;665.80;615.27;;;;;;;17.51;57.44;96652.91;5033190;28;20286;-63
2022/08/13 05:08:10;;;;;;;566.00;526.83;;;;;;;17.56;57.33;96651.03;5033608;28;20186;-64
2022/08/13 05:10:39;;;;;;;568.07;529.13;;;;;;;17.87;56.75;96654.31;5033179;28;20597;-64
2022/08/13 05:13:24;;;;;;;538.47;501.73;;;;;;;18.02;55.67;96648.09;5032118;28;20221;-64
2022/08/13 05:15:50;;;;;;;558.90;520.05;;;;;;;17.94;55.70;96646.84;5017098;28;20183;-64
2022/08/13 05:18:16;;;;;;;583.88;542.00;;;;;;;18.23;54.82;96649.53;5033304;28;20186;-64
2022/08/13 05:20:42;;;;;;;706.00;651.53;;;;;;;18.34;54.45;96656.34;5033485;28;20240;-63
2022/08/13 05:23:08;;;;;;;779.20;712.67;;;;;;;18.75;53.64;96661.28;5033200;28;20197;-63
2022/08/13 05:25:34;;;;;;;810.75;741.08;;;;;;;18.84;53.09;96663.03;5035966;28;20186;-64
2022/08/13 05:28:00;;;;;;;681.03;625.33;;;;;;;19.34;51.85;96659.00;5031865;28;20233;-64
2022/08/13 05:30:27;;;;;;;492.85;458.67;;;;;;;19.81;50.59;96663.47;5032793;28;20735;-64
2022/08/13 05:32:55;;;;;;;570.20;532.55;;;;;;;19.93;50.20;96660.38;5032905;28;20256;-63
2022/08/13 05:35:20;;;;;;;507.75;474.38;;;;;;;19.63;51.00;96664.25;5032668;28;20592;-63
2022/08/13 05:37:46;;;;;;;517.55;482.23;;;;;;;19.51;51.30;96667.31;5032828;28;20198;-64
2022/08/13 05:40:12;;;;;;;508.95;475.13;;;;;;;20.05;50.80;96667.91;5031749;28;20179;-64
2022/08/13 05:42:39;;;;;;;596.97;552.88;;;;;;;20.26;49.55;96663.84;5032838;28;20226;-64
2022/08/13 05:45:08;;;;;;;577.38;536.92;;;;;;;20.47;48.90;96666.97;5032505;28;20671;-63
2022/08/13 05:47:36;;;;;;;584.65;544.33;;;;;;;20.46;49.31;96662.75;5032630;28;20182;-63
2022/08/13 05:50:02;;;;;;;603.17;558.70;;;;;;;20.26;49.59;96659.31;5031576;28;20590;-63
2022/08/13 05:52:30;;;;;;;613.13;568.50;;;;;;;20.02;50.10;96663.94;5031314;28;20565;-64
2022/08/13 05:54:56;;;;;;;638.17;589.75;;;;;;;20.02;50.40;96661.28;5031731;28;20186;-63
2022/08/13 05:57:22;;;;;;;625.80;579.75;;;;;;;20.23;50.31;96651.09;5031580;28;20194;-64
2022/08/13 06:05:15;;;;;;;585.42;543.80;;;;;;;20.09;50.46;96652.94;5032322;28;20593;-65
2022/08/13 06:07:43;;;;;;;628.10;584.20;;;;;;;19.75;51.25;96659.28;5032359;28;20190;-64
2022/08/13 06:10:09;;;;;;;604.60;558.30;;;;;;;20.19;50.41;96650.91;5032389;28;20185;-64
2022/08/13 06:12:36;;;;;;;624.13;576.28;;;;;;;19.94;51.12;96659.28;5032578;28;20660;-64
2022/08/13 06:15:02;;;;;;;590.45;549.20;;;;;;;20.11;50.02;96662.22;5032608;28;20183;-64
2022/08/13 06:17:28;;;;;;;616.95;574.03;;;;;;;19.91;50.78;96662.53;5030654;28;20269;-65
2022/08/13 06:20:00;;;;;;;614.58;571.17;;;;;;;20.16;49.87;96658.69;5032101;28;20186;-64
2022/08/13 06:22:26;;;;;;;624.33;580.53;;;;;;;20.08;50.51;96659.34;5031098;28;20171;-65
2022/08/13 06:24:51;;;;;;;649.30;601.10;;;;;;;20.34;49.98;96661.31;5032699;28;20195;-64
2022/08/13 06:27:16;;;;;;;646.25;598.92;;;;;;;20.37;49.55;96662.63;5031137;28;20226;-65
2022/08/13 06:29:45;;;;;;;661.72;614.13;;;;;;;20.10;50.19;96663.31;5031788;28;20194;-64
2022/08/13 06:32:11;;;;;;;661.13;612.63;;;;;;;20.46;49.66;96660.06;5031948;28;20201;-64
2022/08/13 06:34:37;;;;;;;646.72;599.45;;;;;;;20.21;50.04;96658.59;5031964;28;20681;-64
2022/08/13 06:37:05;;;;;;;626.13;577.00;;;;;;;19.91;50.75;96673.16;5032413;28;20186;-64
2022/08/13 06:39:32;;;;;;;692.30;638.42;;;;;;;20.02;50.46;96673.81;5036216;28;20193;-65
2022/08/13 06:42:03;;;;;;;616.55;568.75;;;;;;;20.20;50.10;96676.44;5020439;28;20301;-65
2022/08/13 06:44:32;;;;;;;614.92;565.80;;;;;;;20.00;50.56;96682.09;5036400;28;20201;-64
2022/08/13 06:47:00;;;;;;;636.85;587.70;;;;;;;19.95;50.48;96678.72;5036022;28;20195;-65
2022/08/13 06:49:26;;;;;;;605.38;561.20;;;;;;;19.81;50.73;96686.63;5035858;28;20635;-64
2022/08/13 06:51:52;;;;;;;567.75;527.78;;;;;;;19.64;51.35;96689.78;5035698;28;20206;-63
2022/08/13 06:54:18;;;;;;;545.08;506.85;;;;;;;20.13;50.58;96683.22;5035731;28;20278;-64
2022/08/13 06:56:44;;;;;;;560.03;521.15;;;;;;;20.04;50.59;96682.28;5044165;28;20194;-63
2022/08/13 06:59:12;;;;;;;571.17;529.10;;;;;;;20.15;50.29;96684.50;5035748;28;20678;-63
2022/08/13 07:01:37;;;;;;;586.90;543.45;;;;;;;20.32;49.44;96679.47;5035644;28;20195;-64
2022/08/13 07:04:03;;;;;;;582.03;539.60;;;;;;;20.25;50.15;96686.22;5035384;28;20205;-64
2022/08/13 07:06:28;;;;;;;620.53;572.00;;;;;;;19.96;50.45;96686.38;5035968;28;20674;-64
2022/08/13 07:08:59;;;;;;;579.95;538.05;;;;;;;19.67;51.11;96688.41;5035687;28;20228;-64
2022/08/13 07:11:27;;;;;;;550.83;511.85;;;;;;;20.28;50.11;96678.44;5035803;28;20206;-64
2022/08/13 07:13:58;;;;;;;560.85;520.42;;;;;;;20.09;50.64;96692.84;5034937;28;20269;-65
2022/08/13 07:16:25;;;;;;;587.38;544.47;;;;;;;20.46;49.94;96690.16;5034713;28;20202;-64
2022/08/13 07:18:51;;;;;;;611.05;564.95;;;;;;;20.39;49.66;96691.63;5035688;28;20187;-64
2022/08/13 07:21:22;;;;;;;637.60;591.30;;;;;;;20.18;50.07;96699.88;5035537;28;20324;-64
2022/08/13 07:23:49;;;;;;;660.78;614.03;;;;;;;20.63;49.32;96692.28;5035757;28;20171;-64
2022/08/13 07:26:18;;;;;;;661.55;614.25;;;;;;;21.00;48.47;96691.38;5034097;28;20222;-64
2022/08/13 07:28:45;;;;;;;644.25;596.60;;;;;;;20.48;49.31;96695.19;5033486;28;20277;-64
2022/08/13 07:31:13;;;;;;;654.17;608.20;;;;;;;21.06;48.65;96688.31;5035448;28;20187;-65
2022/08/13 07:33:49;;;;;;;583.50;541.90;;;;;;;20.80;48.74;96694.38;5035074;28;20524;-64
2022/08/13 07:36:14;;;;;;;686.97;633.95;;;;;;;20.74;49.28;96699.81;5035001;28;20269;-64
2022/08/13 07:38:43;;;;;;;600.70;558.97;;;;;;;20.93;48.55;96697.06;5034134;28;20265;-63
2022/08/13 07:41:10;;;;;;;595.70;554.30;;;;;;;21.05;48.60;96692.06;5035225;28;20179;-64
2022/08/13 07:43:39;;;;;;;545.08;508.05;;;;;;;21.36;47.65;96691.47;5035249;28;20213;-64
2022/08/13 07:46:10;;;;;;;520.80;487.42;;;;;;;21.36;48.00;96689.59;5035212;28;20190;-64
2022/08/13 07:48:41;;;;;;;496.42;465.15;;;;;;;21.62;47.65;96691.75;5019727;28;20183;-65
2022/08/13 07:51:18;;;;;;;465.25;435.55;;;;;;;21.53;47.25;96695.13;5033506;28;20179;-65
2022/08/13 07:53:44;;;;;;;506.55;473.92;;;;;;;21.71;47.35;96682.75;5033849;28;20262;-65
2022/08/13 07:56:09;;;;;;;447.27;418.33;;;;;;;22.28;45.62;96688.44;5034148;28;20270;-65
2022/08/13 07:58:36;;;;;;;456.17;425.67;;;;;;;21.86;46.60;96684.28;5034580;28;20608;-65
2022/08/13 08:01:05;;;;;;;452.02;422.13;;;;;;;21.82;47.20;96686.78;5034681;28;20175;-64
2022/08/13 08:03:41;;;;;;;520.17;485.83;;;;;;;21.92;46.75;96685.75;5034377;28;20229;-65
2022/08/13 08:06:18;;;;;;;511.65;477.13;;;;;;;22.80;45.56;96684.19;5034185;28;20193;-65
2022/08/13 08:08:44;;;;;;;510.50;474.52;;;;;;;22.34;45.64;96688.00;5045222;28;20187;-66
2022/08/13 08:12:30;;;;;;;454.08;422.45;;;;;;;22.35;45.50;96686.09;5034634;28;20205;-64
2022/08/13 08:14:00;;;;;;;459.35;427.95;;;;;;;22.11;46.24;96689.09;5034118;28;20190;-65
2022/08/13 08:16:34;;;;;;;473.83;440.65;;;;;;;21.92;46.83;96686.53;5034427;28;20213;-67
2022/08/13 08:19:00;;;;;;;549.08;510.30;;;;;;;22.01;46.79;96689.31;5033396;28;20686;-65
2022/08/13 08:21:26;;;;;;;522.42;485.63;;;;;;;22.79;45.20;96690.66;5034249;28;20187;-65
2022/08/13 08:23:59;;;;;;;486.48;451.10;;;;;;;22.56;45.58;96686.41;5034848;28;20190;-64
2022/08/13 08:26:29;;;;;;;586.60;543.60;;;;;;;23.26;44.22;96697.13;5033060;28;20745;-64
2022/08/13 08:28:56;;;;;;;477.40;444.40;;;;;;;23.16;44.16;96692.06;5034405;28;20185;-65
2022/08/13 08:31:23;;;;;;;506.05;472.20;;;;;;;22.75;44.98;96690.47;5034025;28;20198;-64
2022/08/13 08:33:49;;;;;;;506.52;470.75;;;;;;;22.65;45.57;96692.59;5034157;28;20274;-63
2022/08/13 08:36:15;;;;;;;512.95;477.08;;;;;;;23.29;44.38;96698.41;5034346;28;20194;-63
2022/08/13 08:44:22;;;;;;;415.73;388.98;;;;;;;22.36;45.63;96691.16;5029183;28;20655;-64
2022/08/13 08:46:49;;;;;;;420.83;393.45;;;;;;;22.64;44.62;96686.44;5028289;28;20179;-63
2022/08/13 08:49:15;;;;;;;557.70;514.70;;;;;;;22.69;45.12;96686.31;5029025;28;20647;-65
2022/08/13 08:51:42;;;;;;;577.97;537.33;;;;;;;22.33;46.22;96691.75;5028090;28;20671;-66
2022/08/13 08:54:08;;;;;;;550.95;515.50;;;;;;;22.77;45.20;96682.94;5030970;28;20194;-65
2022/08/13 08:56:34;;;;;;;536.15;501.13;;;;;;;22.74;44.79;96690.75;5033402;28;20660;-65
2022/08/13 08:59:02;;;;;;;443.70;414.27;;;;;;;22.82;44.64;96694.59;5033428;28;20182;-64
2022/08/13 09:01:33;;;;;;;417.38;388.67;;;;;;;23.43;43.80;96693.72;5032025;28;20221;-64
2022/08/13 09:04:02;;;;;;;504.38;471.13;;;;;;;23.05;44.08;96688.88;5033037;28;20185;-64
2022/08/13 09:06:31;;;;;;;473.15;442.00;;;;;;;23.03;44.19;96685.72;5033771;28;20190;-64
2022/08/13 09:09:01;;;;;;;400.33;374.88;;;;;;;23.54;42.48;96685.13;5033266;28;20189;-66
2022/08/13 09:11:29;;;;;;;425.92;398.95;;;;;;;23.40;41.80;96681.78;5032211;28;20195;-64
2022/08/13 09:13:55;;;;;;;451.63;422.88;;;;;;;23.80;41.82;96689.72;5033315;28;20179;-63
2022/08/13 09:16:21;;;;;;;436.75;408.40;;;;;;;23.65;42.00;96687.50;5033201;28;20190;-64
2022/08/13 09:18:47;;;;;;;454.65;425.63;;;;;;;23.23;43.22;96686.28;5033038;28;20190;-65
2022/08/13 09:21:13;;;;;;;489.85;458.42;;;;;;;23.32;43.83;96690.56;5033519;28;20658;-65
2022/08/13 09:23:46;;;;;;;453.58;424.95;;;;;;;23.38;43.40;96686.63;5033083;28;20190;-65
2022/08/13 09:26:14;;;;;;;459.05;429.85;;;;;;;23.33;43.43;96675.28;5031979;28;20230;-65
2022/08/13 09:28:42;;;;;;;489.77;457.90;;;;;;;23.03;43.80;96679.59;5033273;28;20187;-68
2022/08/13 09:31:10;;;;;;;480.33;448.02;;;;;;;22.94;44.20;96674.22;5031314;28;20647;-67
2022/08/13 09:33:38;;;;;;;506.98;474.35;;;;;;;23.19;43.14;96673.50;5032765;28;20187;-68
2022/08/13 09:36:09;;;;;;;492.27;459.88;;;;;;;23.28;43.24;96683.47;5031073;28;20662;-68
2022/08/13 09:38:36;;;;;;;488.20;456.92;;;;;;;23.55;43.35;96676.00;5022508;28;20608;-68
2022/08/13 09:41:33;;;;;;;533.85;491.17;;;;;;;23.24;43.28;96669.16;5033412;28;20209;-68
2022/08/13 09:43:58;;;;;;;496.48;464.63;;;;;;;22.90;44.00;96677.81;5033142;28;20171;-67
2022/08/13 09:46:24;;;;;;;510.25;477.10;;;;;;;23.28;43.55;96678.91;5032767;28;20256;-64
2022/08/13 09:48:51;;;;;;;498.77;465.13;;;;;;;23.53;42.11;96674.72;5032913;28;20179;-65
2022/08/13 09:51:18;;;;;;;361.38;338.35;;;;;;;23.51;41.07;96671.59;5032710;28;20707;-64
2022/08/13 09:53:46;;;;;;;352.25;329.42;;;;;;;23.45;41.17;96670.94;5031970;28;20213;-64
2022/08/13 09:56:17;;;;;;;536.78;485.20;;;;;;;23.22;41.63;96664.09;5032313;28;20245;-64
2022/08/13 09:58:44;;;;;;;333.33;312.80;;;;;;;23.07;41.82;96667.97;5032178;28;20171;-65
2022/08/13 10:01:11;;;;;;;406.50;379.17;;;;;;;23.47;41.74;96665.28;5049207;28;20251;-64
2022/08/13 10:03:40;;;;;;;379.23;353.15;;;;;;;23.57;41.25;96675.72;5035378;28;20190;-66
2022/08/13 10:06:06;;;;;;;421.73;386.48;;;;;;;23.38;41.48;96669.78;5030643;28;20213;-65
2022/08/13 10:08:33;;;;;;;574.40;524.40;;;;;;;23.15;41.61;96669.09;5032175;28;20232;-64
2022/08/13 10:10:58;;;;;;;395.13;365.25;;;;;;;23.38;41.21;96667.91;5031982;28;20618;-64
2022/08/13 10:13:24;;;;;;;371.42;347.13;;;;;;;23.58;40.86;96669.22;5031150;28;20301;-64
2022/08/13 10:15:49;;;;;;;412.90;385.33;;;;;;;23.23;41.74;96670.22;5032524;28;20212;-66
2022/08/13 10:18:16;;;;;;;370.30;343.23;;;;;;;23.66;40.83;96671.16;5032275;28;20186;-65
2022/08/13 10:20:45;;;;;;;594.00;546.22;;;;;;;23.70;40.49;96677.44;5032313;28;20240;-64
2022/08/13 10:23:14;;;;;;;711.92;654.83;;;;;;;23.64;39.92;96667.97;5032346;28;20197;-64
2022/08/13 10:25:41;;;;;;;757.35;694.75;;;;;;;23.89;39.11;96664.56;5016431;28;20198;-65
2022/08/13 10:28:23;;;;;;;776.42;714.47;;;;;;;24.02;39.08;96660.91;5027993;28;20247;-65
2022/08/13 10:30:49;;;;;;;516.42;480.45;;;;;;;24.09;38.39;96663.13;5031475;28;20228;-64
2022/08/13 10:33:16;;;;;;;411.98;384.98;;;;;;;24.19;38.66;96659.34;5032097;28;20206;-64
2022/08/13 10:35:42;;;;;;;484.85;452.05;;;;;;;24.62;38.10;96649.38;5032386;28;20179;-64
2022/08/13 10:38:13;;;;;;;396.67;370.67;;;;;;;24.68;37.61;96649.97;5032293;28;20301;-64
2022/08/13 10:40:39;;;;;;;330.15;309.05;;;;;;;24.54;37.73;96644.81;5031322;28;20183;-66
2022/08/13 10:43:05;;;;;;;347.00;325.55;;;;;;;24.35;37.60;96636.34;5031450;28;20194;-64
2022/08/13 10:45:31;;;;;;;383.50;357.35;;;;;;;24.52;37.74;96632.84;5032282;28;20190;-65
2022/08/13 10:47:56;;;;;;;357.60;335.10;;;;;;;24.56;37.23;96639.13;5031642;28;20185;-64
2022/08/13 10:50:29;;;;;;;401.42;375.63;;;;;;;24.56;36.85;96639.13;5030018;28;20186;-64
2022/08/13 10:52:59;;;;;;;375.95;353.73;;;;;;;24.30;36.87;96639.16;5031336;28;20198;-63
2022/08/13 10:55:26;;;;;;;375.70;352.17;;;;;;;24.26;37.41;96636.34;5031983;28;20186;-64
2022/08/13 10:57:51;;;;;;;393.48;370.15;;;;;;;24.69;36.22;96627.41;5030971;28;20268;-64
2022/08/13 11:00:18;;;;;;;494.55;460.45;;;;;;;24.61;36.35;96628.25;5031840;28;21102;-65
2022/08/13 11:02:46;;;;;;;382.55;358.95;;;;;;;24.74;35.55;96627.25;5031978;28;20198;-64
2022/08/13 11:05:11;;;;;;;620.20;568.72;;;;;;;24.81;35.62;96622.94;5032067;28;20191;-64
2022/08/13 11:07:38;;;;;;;440.80;412.80;;;;;;;24.73;35.75;96623.78;5031708;28;20201;-64
2022/08/13 11:10:08;;;;;;;426.73;399.85;;;;;;;24.78;36.06;96615.56;5031286;28;20195;-65
2022/08/13 11:12:34;;;;;;;407.77;381.45;;;;;;;24.83;35.59;96622.63;5031149;28;20593;-65
2022/08/13 11:15:01;;;;;;;477.60;440.58;;;;;;;24.93;35.70;96619.63;5029484;28;20187;-65
2022/08/13 11:17:26;;;;;;;651.85;594.63;;;;;;;25.15;34.97;96618.56;5031222;28;20203;-65
2022/08/13 11:19:52;;;;;;;356.98;334.63;;;;;;;25.05;35.53;96621.63;5031535;28;20662;-65
2022/08/13 11:22:19;;;;;;;431.10;403.98;;;;;;;25.06;35.42;96617.84;5031024;28;20686;-65
2022/08/13 11:24:45;;;;;;;398.98;374.15;;;;;;;25.10;35.08;96614.19;5032798;28;20255;-65